Time;durP1;ratioP1;P1;durP2;ratioP2;P2;SDS_P1;SDS_P2;PMS_P1;PMS_P2;Temp;Humidity;BMP_temperature;BMP_pressure;BME280_temperature;BME280_humidity;BME280_pressure;Samples;Min_cycle;Max_cycle;Signal;HPM_P1;HPM_P2
2024/02/20 00:01:34;;;;;;;4.03;1.92;;;;;;;;;;7411551;19;19918;-82
2024/02/20 00:04:20;;;;;;;3.03;1.50;;;;;;;;;;7414052;19;19919;-82
2024/02/20 00:07:09;;;;;;;6.25;1.52;;;;;;;;;;7411027;19;19922;-82
2024/02/20 00:09:55;;;;;;;3.25;1.30;;;;;;;;;;7411924;19;19919;-82
2024/02/20 00:12:44;;;;;;;2.78;1.52;;;;;;;;;;7411470;19;19919;-82
2024/02/20 00:15:30;;;;;;;2.35;1.38;;;;;;;;;;7412787;19;19911;-82
2024/02/20 00:18:17;;;;;;;4.20;1.50;;;;;;;;;;7412798;19;19915;-82
2024/02/20 00:21:03;;;;;;;2.17;1.20;;;;;;;;;;7412675;19;19926;-82
2024/02/20 00:23:52;;;;;;;2.53;1.20;;;;;;;;;;7412594;19;19919;-82
2024/02/20 00:26:39;;;;;;;3.38;1.70;;;;;;;;;;7413756;19;19923;-82
2024/02/20 00:29:28;;;;;;;3.38;1.40;;;;;;;;;;7413527;19;19923;-82
2024/02/20 00:32:16;;;;;;;1.50;0.90;;;;;;;;;;7411502;19;19938;-82
2024/02/20 00:35:01;;;;;;;2.17;1.08;;;;;;;;;;7412787;19;19918;-82
2024/02/20 00:37:47;;;;;;;2.70;1.48;;;;;;;;;;7414146;19;19926;-82
2024/02/20 00:40:34;;;;;;;1.98;1.30;;;;;;;;;;7414265;19;19922;-82
2024/02/20 00:43:18;;;;;;;2.92;1.05;;;;;;;;;;7412927;19;19929;-82
2024/02/20 00:46:08;;;;;;;4.32;1.02;;;;;;;;;;7409407;19;20245;-82
2024/02/20 00:48:58;;;;;;;2.65;1.17;;;;;;;;;;7410308;19;20253;-82
2024/02/20 00:51:45;;;;;;;3.00;1.40;;;;;;;;;;7412427;19;19923;-82
2024/02/20 00:54:32;;;;;;;2.50;1.23;;;;;;;;;;7413047;19;19911;-83
2024/02/20 00:57:16;;;;;;;2.88;1.30;;;;;;;;;;7411324;19;19951;-83
2024/02/20 01:00:00;;;;;;;2.25;1.10;;;;;;;;;;7412679;19;20010;-83
2024/02/20 01:02:50;;;;;;;4.47;1.17;;;;;;;;;;7418346;19;19922;-83
2024/02/20 01:05:36;;;;;;;4.75;1.50;;;;;;;;;;7431118;19;19952;-83
2024/02/20 01:08:23;;;;;;;2.60;1.05;;;;;;;;;;7414641;19;19919;-83
2024/02/20 01:11:08;;;;;;;2.65;1.50;;;;;;;;;;7410503;19;19922;-83
2024/02/20 01:13:54;;;;;;;3.72;1.33;;;;;;;;;;7414606;19;20272;-83
2024/02/20 01:16:38;;;;;;;3.05;1.08;;;;;;;;;;7414258;19;20264;-83
2024/02/20 01:19:25;;;;;;;9.27;1.20;;;;;;;;;;7416071;19;19910;-83
2024/02/20 01:22:12;;;;;;;3.22;1.05;;;;;;;;;;7413855;19;19927;-83
2024/02/20 01:24:56;;;;;;;6.95;1.30;;;;;;;;;;7417691;19;19978;-83
2024/02/20 01:27:42;;;;;;;6.18;1.20;;;;;;;;;;7414591;19;19954;-83
2024/02/20 01:30:29;;;;;;;9.68;1.27;;;;;;;;;;7418576;19;19919;-83
2024/02/20 01:33:15;;;;;;;2.35;0.90;;;;;;;;;;7417063;19;19927;-82
2024/02/20 01:36:02;;;;;;;5.18;1.30;;;;;;;;;;7413809;19;19952;-82
2024/02/20 01:38:46;;;;;;;4.15;1.10;;;;;;;;;;7416513;19;19929;-82
2024/02/20 01:41:33;;;;;;;2.88;1.35;;;;;;;;;;7419440;19;20373;-82
2024/02/20 01:44:18;;;;;;;3.17;1.08;;;;;;;;;;7415872;19;19947;-82
2024/02/20 01:47:03;;;;;;;4.72;1.10;;;;;;;;;;7415633;19;19938;-82
2024/02/20 01:49:48;;;;;;;5.90;1.38;;;;;;;;;;7419946;19;19936;-82
2024/02/20 01:52:35;;;;;;;3.75;1.25;;;;;;;;;;7419531;19;19943;-82
2024/02/20 01:55:24;;;;;;;3.63;1.02;;;;;;;;;;7416458;19;19935;-82
2024/02/20 01:58:13;;;;;;;7.57;1.17;;;;;;;;;;7414160;19;20262;-82
2024/02/20 02:00:58;;;;;;;5.15;1.33;;;;;;;;;;7415975;19;19919;-83
2024/02/20 02:03:45;;;;;;;3.63;1.65;;;;;;;;;;7415988;19;19961;-83
2024/02/20 02:06:32;;;;;;;6.03;1.70;;;;;;;;;;7418178;19;19918;-82
2024/02/20 02:09:21;;;;;;;2.53;1.63;;;;;;;;;;7416184;19;19911;-82
2024/02/20 02:12:09;;;;;;;6.15;1.70;;;;;;;;;;7416886;19;19922;-82
2024/02/20 02:14:59;;;;;;;9.85;1.58;;;;;;;;;;7414972;19;19955;-82
2024/02/20 02:17:44;;;;;;;4.10;1.38;;;;;;;;;;7414208;19;19926;-82
2024/02/20 02:20:28;;;;;;;8.63;1.70;;;;;;;;;;7413911;19;19986;-82
2024/02/20 02:23:14;;;;;;;5.32;1.77;;;;;;;;;;7417150;19;19918;-82
2024/02/20 02:26:01;;;;;;;6.22;1.52;;;;;;;;;;7418986;19;19917;-82
2024/02/20 02:28:48;;;;;;;5.15;1.50;;;;;;;;;;7415903;19;19918;-82
2024/02/20 02:31:35;;;;;;;4.90;2.00;;;;;;;;;;7414783;19;19922;-82
2024/02/20 02:34:22;;;;;;;6.78;1.83;;;;;;;;;;7415449;19;19919;-82
2024/02/20 02:37:11;;;;;;;7.55;1.77;;;;;;;;;;7414286;19;19918;-82
2024/02/20 02:39:57;;;;;;;9.98;1.58;;;;;;;;;;7415517;19;19929;-82
2024/02/20 02:42:41;;;;;;;7.88;2.20;;;;;;;;;;7415850;19;20385;-82
2024/02/20 02:45:33;;;;;;;6.25;1.67;;;;;;;;;;7414249;19;19910;-82
2024/02/20 02:48:20;;;;;;;9.68;1.25;;;;;;;;;;7414657;19;19974;-82
2024/02/20 02:51:08;;;;;;;5.07;1.50;;;;;;;;;;7414925;19;20334;-82
2024/02/20 02:53:55;;;;;;;9.55;2.20;;;;;;;;;;7416253;19;19920;-82
2024/02/20 02:56:39;;;;;;;7.35;1.50;;;;;;;;;;7412971;19;19940;-82
2024/02/20 02:59:25;;;;;;;2.55;1.63;;;;;;;;;;7414320;19;19918;-82
2024/02/20 03:02:14;;;;;;;8.18;1.67;;;;;;;;;;7413939;19;19907;-82
2024/02/20 03:04:59;;;;;;;6.10;1.80;;;;;;;;;;7414079;19;19929;-82
2024/02/20 03:07:46;;;;;;;11.80;1.90;;;;;;;;;;7412987;19;19933;-82
2024/02/20 03:10:34;;;;;;;4.70;1.70;;;;;;;;;;7412490;19;19915;-82
2024/02/20 03:13:19;;;;;;;5.57;1.42;;;;;;;;;;7416135;19;19914;-82
2024/02/20 03:16:07;;;;;;;6.70;1.60;;;;;;;;;;7412232;19;20269;-82
2024/02/20 03:18:56;;;;;;;12.07;1.88;;;;;;;;;;7414534;19;19945;-82
2024/02/20 03:21:40;;;;;;;8.35;1.60;;;;;;;;;;7413288;19;19926;-82
2024/02/20 03:24:28;;;;;;;9.10;1.77;;;;;;;;;;7416370;19;19915;-82
2024/02/20 03:27:15;;;;;;;9.15;1.90;;;;;;;;;;7412555;19;19937;-82
2024/02/20 03:30:02;;;;;;;10.77;2.33;;;;;;;;;;7415127;19;20392;-83
2024/02/20 03:32:46;;;;;;;12.00;2.05;;;;;;;;;;7415674;19;19974;-83
2024/02/20 03:35:36;;;;;;;11.90;2.20;;;;;;;;;;7410600;19;19926;-83
2024/02/20 03:38:20;;;;;;;7.80;1.60;;;;;;;;;;7411084;19;19914;-82
2024/02/20 03:41:07;;;;;;;16.00;1.75;;;;;;;;;;7413029;19;19914;-82
2024/02/20 03:43:58;;;;;;;4.65;1.80;;;;;;;;;;7414739;19;19918;-82
2024/02/20 03:46:42;;;;;;;7.28;1.98;;;;;;;;;;7410377;19;19915;-81
2024/02/20 03:49:28;;;;;;;7.95;1.60;;;;;;;;;;7411489;19;19915;-81
2024/02/20 03:52:17;;;;;;;8.98;1.63;;;;;;;;;;7412361;19;19918;-81
2024/02/20 03:55:08;;;;;;;4.70;1.67;;;;;;;;;;7412501;19;19923;-81
2024/02/20 03:57:52;;;;;;;9.07;2.13;;;;;;;;;;7409298;19;19918;-81
2024/02/20 04:00:37;;;;;;;11.32;2.00;;;;;;;;;;7409824;19;19914;-82
2024/02/20 04:03:26;;;;;;;9.27;1.95;;;;;;;;;;7411067;19;19914;-82
2024/02/20 04:06:12;;;;;;;14.13;1.95;;;;;;;;;;7410604;19;19959;-82
2024/02/20 04:09:04;;;;;;;9.32;1.52;;;;;;;;;;7410641;19;19926;-82
2024/02/20 04:11:50;;;;;;;8.00;1.80;;;;;;;;;;7413376;19;19926;-81
2024/02/20 04:14:34;;;;;;;6.28;1.73;;;;;;;;;;7413234;19;20591;-81
2024/02/20 04:17:21;;;;;;;7.53;1.98;;;;;;;;;;7409351;19;20290;-81
2024/02/20 04:20:12;;;;;;;8.38;2.47;;;;;;;;;;7409528;19;19911;-81
2024/02/20 04:23:01;;;;;;;6.53;2.15;;;;;;;;;;7411548;19;19915;-80
2024/02/20 04:25:50;;;;;;;9.73;2.10;;;;;;;;;;7411416;19;19922;-80
2024/02/20 04:28:38;;;;;;;10.60;1.88;;;;;;;;;;7410782;19;19927;-81
2024/02/20 04:31:24;;;;;;;7.72;1.80;;;;;;;;;;7409983;19;19926;-80
2024/02/20 04:34:08;;;;;;;13.30;2.10;;;;;;;;;;7409596;19;19919;-80
2024/02/20 04:36:55;;;;;;;3.90;1.73;;;;;;;;;;7405373;19;19922;-81
2024/02/20 04:39:39;;;;;;;10.95;1.83;;;;;;;;;;7410325;19;19918;-81
2024/02/20 04:42:28;;;;;;;6.10;1.65;;;;;;;;;;7412191;19;19986;-81
2024/02/20 04:45:21;;;;;;;9.13;1.42;;;;;;;;;;7406659;19;19914;-81
2024/02/20 04:48:07;;;;;;;7.75;1.85;;;;;;;;;;7404143;19;20265;-81
2024/02/20 04:50:53;;;;;;;7.75;1.77;;;;;;;;;;7410120;19;19922;-80
2024/02/20 04:53:37;;;;;;;7.80;2.20;;;;;;;;;;7412457;19;19940;-80
2024/02/20 04:56:24;;;;;;;8.85;1.58;;;;;;;;;;7408490;19;19950;-80
2024/02/20 04:59:13;;;;;;;5.53;1.58;;;;;;;;;;7408440;19;19911;-80
2024/02/20 05:02:01;;;;;;;3.63;1.15;;;;;;;;;;7408421;19;19917;-81
2024/02/20 05:04:45;;;;;;;8.30;1.33;;;;;;;;;;7420017;19;19970;-80
2024/02/20 05:07:29;;;;;;;7.95;1.40;;;;;;;;;;7422737;19;19930;-79
2024/02/20 05:10:16;;;;;;;7.78;1.92;;;;;;;;;;7429174;19;19926;-80
2024/02/20 05:13:00;;;;;;;4.22;1.27;;;;;;;;;;7431341;19;19929;-80
2024/02/20 05:15:55;;;;;;;8.05;1.40;;;;;;;;;;7418560;19;19915;-80
2024/02/20 05:18:42;;;;;;;6.03;1.27;;;;;;;;;;7419331;19;19926;-80
2024/02/20 05:21:28;;;;;;;11.45;1.90;;;;;;;;;;7415026;19;19938;-80
2024/02/20 05:24:13;;;;;;;7.50;1.85;;;;;;;;;;7414548;19;19926;-80
2024/02/20 05:26:58;;;;;;;7.32;1.65;;;;;;;;;;7414367;19;19933;-81
2024/02/20 05:29:42;;;;;;;9.18;1.30;;;;;;;;;;7416848;19;19915;-81
2024/02/20 05:32:32;;;;;;;10.02;1.95;;;;;;;;;;7414074;19;19923;-81
2024/02/20 05:35:22;;;;;;;9.10;1.60;;;;;;;;;;7416495;19;19914;-81
2024/02/20 05:38:08;;;;;;;8.70;1.92;;;;;;;;;;7413022;19;19910;-81
2024/02/20 05:40:55;;;;;;;5.63;1.40;;;;;;;;;;7414349;19;20322;-81
2024/02/20 05:43:43;;;;;;;5.15;1.10;;;;;;;;;;7414370;19;19929;-81
2024/02/20 05:46:28;;;;;;;3.90;1.27;;;;;;;;;;7413663;19;19922;-81
2024/02/20 05:49:20;;;;;;;14.93;2.40;;;;;;;;;;7415647;19;19937;-81
2024/02/20 05:52:06;;;;;;;12.68;2.20;;;;;;;;;;7414408;19;19918;-81
2024/02/20 05:54:50;;;;;;;8.77;1.80;;;;;;;;;;7417387;19;19962;-81
2024/02/20 05:57:34;;;;;;;5.88;1.30;;;;;;;;;;7413384;19;19951;-80
2024/02/20 06:00:19;;;;;;;7.30;2.28;;;;;;;;;;7420715;19;19918;-81
2024/02/20 06:03:11;;;;;;;7.50;2.08;;;;;;;;;;7419629;19;19970;-80
2024/02/20 06:06:00;;;;;;;13.45;2.85;;;;;;;;;;7421598;19;19914;-80
2024/02/20 06:08:49;;;;;;;6.82;2.05;;;;;;;;;;7421791;19;19923;-80
2024/02/20 06:11:37;;;;;;;12.82;2.40;;;;;;;;;;7420130;19;19919;-80
2024/02/20 06:14:26;;;;;;;7.95;1.63;;;;;;;;;;7418145;19;20273;-80
2024/02/20 06:17:13;;;;;;;6.18;1.60;;;;;;;;;;7417517;19;20341;-80
2024/02/20 06:19:59;;;;;;;7.55;1.77;;;;;;;;;;7420745;19;20348;-80
2024/02/20 06:22:48;;;;;;;9.45;2.85;;;;;;;;;;7420913;19;20306;-81
2024/02/20 06:25:34;;;;;;;9.25;1.70;;;;;;;;;;7418552;19;20270;-81
2024/02/20 06:28:21;;;;;;;8.65;2.20;;;;;;;;;;7418522;19;20244;-80
2024/02/20 06:31:07;;;;;;;11.55;2.67;;;;;;;;;;7417016;19;19918;-81
2024/02/20 06:33:52;;;;;;;8.43;2.58;;;;;;;;;;7417823;19;19947;-81
2024/02/20 06:36:38;;;;;;;10.35;2.08;;;;;;;;;;7419106;19;19918;-81
2024/02/20 06:39:27;;;;;;;5.28;1.58;;;;;;;;;;7419426;19;19986;-81
2024/02/20 06:42:16;;;;;;;9.30;1.83;;;;;;;;;;7416319;19;19923;-81
2024/02/20 06:45:00;;;;;;;7.18;2.60;;;;;;;;;;7415389;19;19999;-80
2024/02/20 06:47:49;;;;;;;6.13;2.03;;;;;;;;;;7410071;19;19915;-80
2024/02/20 06:50:33;;;;;;;19.67;2.97;;;;;;;;;;7410262;19;19970;-80
2024/02/20 06:53:20;;;;;;;8.18;2.92;;;;;;;;;;7439119;19;19914;-80
2024/02/20 06:56:09;;;;;;;9.77;2.40;;;;;;;;;;7446504;19;19914;-80
2024/02/20 06:58:56;;;;;;;9.15;2.60;;;;;;;;;;7438431;19;19914;-80
2024/02/20 07:01:45;;;;;;;9.18;1.83;;;;;;;;;;7402493;19;19914;-80
2024/02/20 07:04:32;;;;;;;4.72;1.63;;;;;;;;;;7399546;19;19914;-81
2024/02/20 07:07:19;;;;;;;8.25;1.60;;;;;;;;;;7395300;19;19982;-80
2024/02/20 07:10:07;;;;;;;4.80;1.50;;;;;;;;;;7398097;19;19919;-80
2024/02/20 07:12:59;;;;;;;8.80;1.88;;;;;;;;;;7406141;19;20264;-80
2024/02/20 07:15:44;;;;;;;9.85;1.55;;;;;;;;;;7404152;19;19963;-81
2024/02/20 07:18:28;;;;;;;4.93;1.30;;;;;;;;;;7410868;19;19919;-81
2024/02/20 07:21:15;;;;;;;15.38;2.03;;;;;;;;;;7404018;19;19978;-81
2024/02/20 07:24:01;;;;;;;5.30;1.63;;;;;;;;;;7408177;19;19922;-80
2024/02/20 07:26:47;;;;;;;9.15;1.75;;;;;;;;;;7425344;19;19921;-80
2024/02/20 07:29:43;;;;;;;4.28;1.70;;;;;;;;;;7441852;19;19914;-80
2024/02/20 07:32:27;;;;;;;7.13;2.15;;;;;;;;;;7420767;19;19928;-80
2024/02/20 07:35:19;;;;;;;5.47;1.65;;;;;;;;;;7419246;19;19918;-81
2024/02/20 07:38:06;;;;;;;4.30;1.40;;;;;;;;;;7417201;19;19966;-81
2024/02/20 07:40:54;;;;;;;6.43;1.90;;;;;;;;;;7416567;19;19923;-81
2024/02/20 07:43:43;;;;;;;5.47;1.77;;;;;;;;;;7416949;19;19926;-81
2024/02/20 07:46:33;;;;;;;8.57;1.77;;;;;;;;;;7415751;19;19929;-81
2024/02/20 07:49:17;;;;;;;7.10;1.80;;;;;;;;;;7415259;19;19927;-81
2024/02/20 07:52:05;;;;;;;10.95;2.08;;;;;;;;;;7415855;19;20318;-81
2024/02/20 07:54:52;;;;;;;4.93;1.48;;;;;;;;;;7415724;19;20006;-81
2024/02/20 07:57:36;;;;;;;9.20;1.95;;;;;;;;;;7414642;19;19918;-82
2024/02/20 08:00:25;;;;;;;9.70;2.05;;;;;;;;;;7413912;19;19910;-81
2024/02/20 08:03:22;;;;;;;6.60;1.95;;;;;;;;;;7416168;19;19922;-81
2024/02/20 08:06:10;;;;;;;9.02;1.92;;;;;;;;;;7414285;19;19918;-82
2024/02/20 08:08:54;;;;;;;7.93;1.95;;;;;;;;;;7415468;19;19918;-81
2024/02/20 08:11:39;;;;;;;13.73;2.50;;;;;;;;;;7415490;19;19978;-81
2024/02/20 08:14:26;;;;;;;5.38;1.45;;;;;;;;;;7412682;19;19919;-81
2024/02/20 08:17:10;;;;;;;6.05;1.88;;;;;;;;;;7410277;19;19918;-81
2024/02/20 08:19:57;;;;;;;9.60;1.80;;;;;;;;;;7410251;19;19974;-81
2024/02/20 08:22:43;;;;;;;6.45;1.85;;;;;;;;;;7409344;19;19944;-81
2024/02/20 08:25:31;;;;;;;11.85;2.70;;;;;;;;;;7409125;19;19986;-81
2024/02/20 08:28:18;;;;;;;9.85;1.85;;;;;;;;;;7410406;19;19922;-80
2024/02/20 08:31:02;;;;;;;11.38;2.78;;;;;;;;;;7411845;19;19930;-80
2024/02/20 08:33:50;;;;;;;8.70;1.80;;;;;;;;;;7414193;19;19911;-80
2024/02/20 08:36:39;;;;;;;6.68;2.25;;;;;;;;;;7408271;19;19926;-81
2024/02/20 08:39:26;;;;;;;6.35;2.38;;;;;;;;;;7410158;19;19925;-80
2024/02/20 08:42:15;;;;;;;7.78;2.80;;;;;;;;;;7407852;19;19974;-81
2024/02/20 08:45:03;;;;;;;5.45;2.35;;;;;;;;;;7413560;19;19914;-80
2024/02/20 08:47:48;;;;;;;6.38;2.50;;;;;;;;;;7412209;19;19923;-82
2024/02/20 08:50:32;;;;;;;5.53;2.30;;;;;;;;;;7412683;19;19915;-81
2024/02/20 08:53:19;;;;;;;11.10;2.90;;;;;;;;;;7411591;19;19918;-81
2024/02/20 08:56:06;;;;;;;10.80;2.92;;;;;;;;;;7410839;19;19922;-81
2024/02/20 08:58:52;;;;;;;12.30;3.33;;;;;;;;;;7409444;19;19935;-81
2024/02/20 09:01:40;;;;;;;6.82;2.30;;;;;;;;;;7409476;19;20365;-80
2024/02/20 09:04:27;;;;;;;9.02;2.70;;;;;;;;;;7411834;19;19922;-81
2024/02/20 09:07:14;;;;;;;7.55;3.08;;;;;;;;;;7411437;19;19915;-82
2024/02/20 09:10:01;;;;;;;9.30;2.92;;;;;;;;;;7409396;19;19918;-81
2024/02/20 09:12:48;;;;;;;9.05;3.00;;;;;;;;;;7410001;19;19922;-81
2024/02/20 09:15:34;;;;;;;7.28;3.05;;;;;;;;;;7409725;19;19923;-81
2024/02/20 09:18:20;;;;;;;8.13;3.15;;;;;;;;;;7407916;19;20329;-81
2024/02/20 09:21:06;;;;;;;7.68;2.72;;;;;;;;;;7410364;19;19922;-81
2024/02/20 09:23:56;;;;;;;13.55;3.17;;;;;;;;;;7408461;19;19970;-81
2024/02/20 09:26:43;;;;;;;8.68;3.42;;;;;;;;;;7410295;19;19919;-81
2024/02/20 09:29:31;;;;;;;11.13;3.42;;;;;;;;;;7408960;19;19998;-81
2024/02/20 09:32:15;;;;;;;10.43;2.90;;;;;;;;;;7409759;19;19978;-81
2024/02/20 09:35:05;;;;;;;7.50;2.85;;;;;;;;;;7416240;19;20357;-81
2024/02/20 09:37:52;;;;;;;6.95;2.55;;;;;;;;;;7414534;19;19933;-81
2024/02/20 09:40:41;;;;;;;7.88;2.60;;;;;;;;;;7418714;19;19930;-80
2024/02/20 09:43:28;;;;;;;9.90;3.08;;;;;;;;;;7440381;19;19946;-80
2024/02/20 09:46:22;;;;;;;8.73;2.53;;;;;;;;;;7427185;19;20293;-86
2024/02/20 09:49:08;;;;;;;6.28;2.78;;;;;;;;;;7403789;19;20326;-86
2024/02/20 09:51:52;;;;;;;17.00;3.63;;;;;;;;;;7411800;19;20522;-86
2024/02/20 09:54:37;;;;;;;10.43;3.22;;;;;;;;;;7415465;19;19945;-85
2024/02/20 09:57:23;;;;;;;15.27;2.80;;;;;;;;;;7412914;19;19930;-86
2024/02/20 10:00:12;;;;;;;6.85;2.35;;;;;;;;;;7413905;19;19918;-86
2024/02/20 10:03:03;;;;;;;6.63;2.40;;;;;;;;;;7417969;19;19948;-86
2024/02/20 10:05:48;;;;;;;8.18;2.45;;;;;;;;;;7418729;19;19950;-86
2024/02/20 10:08:33;;;;;;;9.23;2.40;;;;;;;;;;7419425;19;20283;-86
2024/02/20 10:11:17;;;;;;;10.57;2.35;;;;;;;;;;7416420;19;19910;-86
2024/02/20 10:14:01;;;;;;;8.18;2.58;;;;;;;;;;7417015;19;19925;-86
2024/02/20 10:16:48;;;;;;;6.78;2.15;;;;;;;;;;7415697;19;19925;-86
2024/02/20 10:19:35;;;;;;;6.03;2.13;;;;;;;;;;7413323;19;19932;-87
2024/02/20 10:22:27;;;;;;;9.65;2.25;;;;;;;;;;7410762;19;19910;-86
2024/02/20 10:25:13;;;;;;;8.82;2.53;;;;;;;;;;7417848;19;19934;-86
2024/02/20 10:27:57;;;;;;;8.27;3.00;;;;;;;;;;7412734;19;20607;-86
2024/02/20 10:30:42;;;;;;;5.22;2.10;;;;;;;;;;7416819;19;19926;-86
2024/02/20 10:33:29;;;;;;;7.65;2.25;;;;;;;;;;7418196;19;19919;-87
2024/02/20 10:36:13;;;;;;;6.00;2.03;;;;;;;;;;7417483;19;20273;-86
2024/02/20 10:39:07;;;;;;;8.55;2.00;;;;;;;;;;7414537;19;19942;-87
2024/02/20 10:41:51;;;;;;;9.90;3.00;;;;;;;;;;7416012;19;19914;-86
2024/02/20 10:44:36;;;;;;;9.13;2.40;;;;;;;;;;7416364;19;19937;-86
2024/02/20 10:47:22;;;;;;;8.18;2.47;;;;;;;;;;7418641;19;19919;-86
2024/02/20 10:50:11;;;;;;;5.55;1.63;;;;;;;;;;7417498;19;19914;-87
2024/02/20 10:53:03;;;;;;;4.20;1.67;;;;;;;;;;7419507;19;20347;-86
2024/02/20 10:55:48;;;;;;;8.10;1.90;;;;;;;;;;7418734;19;19926;-86
2024/02/20 10:58:39;;;;;;;10.30;2.00;;;;;;;;;;7415193;19;19915;-87
2024/02/20 11:01:31;;;;;;;9.40;2.60;;;;;;;;;;7409881;19;19926;-86
2024/02/20 11:04:16;;;;;;;12.30;2.08;;;;;;;;;;7416097;19;19915;-86
2024/02/20 11:07:03;;;;;;;10.77;2.17;;;;;;;;;;7416064;19;19918;-86
2024/02/20 11:10:08;;;;;;;7.47;2.30;;;;;;;;;;7413758;19;19918;-86
2024/02/20 11:12:52;;;;;;;12.52;2.47;;;;;;;;;;7418403;19;19919;-86
2024/02/20 11:15:36;;;;;;;13.95;3.17;;;;;;;;;;7414565;19;19910;-86
2024/02/20 11:18:24;;;;;;;7.80;1.80;;;;;;;;;;7414626;19;19915;-86
2024/02/20 11:21:11;;;;;;;7.40;1.98;;;;;;;;;;7415741;19;20249;-86
2024/02/20 11:24:10;;;;;;;9.40;1.80;;;;;;;;;;7411218;19;19982;-87
2024/02/20 11:27:04;;;;;;;7.30;1.60;;;;;;;;;;7412616;19;19918;-86
2024/02/20 11:29:50;;;;;;;7.30;2.03;;;;;;;;;;7415900;19;19911;-86
2024/02/20 11:32:35;;;;;;;11.13;2.10;;;;;;;;;;7416313;19;19915;-86
2024/02/20 11:35:29;;;;;;;9.90;1.67;;;;;;;;;;7417171;19;19918;-86
2024/02/20 11:38:23;;;;;;;11.18;2.28;;;;;;;;;;7416566;19;19978;-86
2024/02/20 11:41:12;;;;;;;6.28;1.75;;;;;;;;;;7415327;19;19926;-86
2024/02/20 11:44:04;;;;;;;9.45;2.13;;;;;;;;;;7419637;19;20299;-86
2024/02/20 11:46:57;;;;;;;4.15;1.52;;;;;;;;;;7418088;19;20258;-86
2024/02/20 11:49:42;;;;;;;5.80;2.20;;;;;;;;;;7417993;19;19930;-86
2024/02/20 11:52:31;;;;;;;9.70;1.55;;;;;;;;;;7429454;19;19926;-86
2024/02/20 11:55:18;;;;;;;9.57;2.17;;;;;;;;;;7439554;19;19915;-86
2024/02/20 11:58:06;;;;;;;6.50;1.52;;;;;;;;;;7431504;19;19929;-86
2024/02/20 12:00:54;;;;;;;5.93;1.63;;;;;;;;;;7418253;19;20360;-86
2024/02/20 12:03:42;;;;;;;10.85;2.40;;;;;;;;;;7418094;19;19910;-86
2024/02/20 12:06:32;;;;;;;6.97;2.28;;;;;;;;;;7420669;19;19962;-85
2024/02/20 12:09:24;;;;;;;8.13;2.67;;;;;;;;;;7419569;19;19914;-86
2024/02/20 12:12:09;;;;;;;10.13;2.08;;;;;;;;;;7418528;19;19926;-86
2024/02/20 12:15:02;;;;;;;4.70;1.90;;;;;;;;;;7417013;19;20326;-86
2024/02/20 12:17:47;;;;;;;5.28;1.67;;;;;;;;;;7417895;19;20021;-86
2024/02/20 12:20:34;;;;;;;6.20;1.70;;;;;;;;;;7415503;19;19907;-85
2024/02/20 12:23:20;;;;;;;7.47;1.73;;;;;;;;;;7418398;19;19922;-86
2024/02/20 12:26:08;;;;;;;10.00;2.08;;;;;;;;;;7417189;19;19921;-86
2024/02/20 12:28:56;;;;;;;5.07;1.42;;;;;;;;;;7419630;19;19915;-84
2024/02/20 12:31:50;;;;;;;8.35;2.40;;;;;;;;;;7418822;19;19918;-83
2024/02/20 12:34:37;;;;;;;7.40;2.00;;;;;;;;;;7420623;19;19926;-83
2024/02/20 12:37:28;;;;;;;8.18;1.60;;;;;;;;;;7415346;19;19914;-84
2024/02/20 12:40:19;;;;;;;7.47;1.92;;;;;;;;;;7418068;19;19918;-84
2024/02/20 12:43:06;;;;;;;6.07;2.22;;;;;;;;;;7418200;19;20286;-84
2024/02/20 12:45:51;;;;;;;8.13;2.92;;;;;;;;;;7417621;19;19932;-84
2024/02/20 12:48:41;;;;;;;6.22;2.28;;;;;;;;;;7417738;19;19918;-84
2024/02/20 12:51:27;;;;;;;8.00;2.13;;;;;;;;;;7415915;19;19959;-83
2024/02/20 12:54:14;;;;;;;8.25;2.55;;;;;;;;;;7415520;19;19922;-83
2024/02/20 12:57:00;;;;;;;5.72;2.45;;;;;;;;;;7414752;19;19907;-83
2024/02/20 12:59:45;;;;;;;13.77;2.15;;;;;;;;;;7412122;19;19926;-83
2024/02/20 13:02:34;;;;;;;7.10;1.52;;;;;;;;;;7413714;19;20341;-83
2024/02/20 13:05:21;;;;;;;7.68;1.63;;;;;;;;;;7416251;19;19910;-83
2024/02/20 13:08:09;;;;;;;9.75;2.08;;;;;;;;;;7410114;19;20370;-83
2024/02/20 13:10:53;;;;;;;6.68;1.80;;;;;;;;;;7412914;19;20292;-83
2024/02/20 13:13:43;;;;;;;4.50;1.67;;;;;;;;;;7414055;19;19926;-83
2024/02/20 13:16:29;;;;;;;9.18;1.98;;;;;;;;;;7413639;19;20273;-83
2024/02/20 13:19:18;;;;;;;5.95;1.85;;;;;;;;;;7413280;19;19923;-83
2024/02/20 13:22:05;;;;;;;6.45;2.00;;;;;;;;;;7412694;19;19949;-83
2024/02/20 13:24:54;;;;;;;7.47;1.70;;;;;;;;;;7412880;19;20326;-83
2024/02/20 13:27:42;;;;;;;5.28;1.58;;;;;;;;;;7414079;19;19925;-83
2024/02/20 13:30:29;;;;;;;8.38;1.50;;;;;;;;;;7413667;19;19968;-83
2024/02/20 13:33:13;;;;;;;3.70;1.55;;;;;;;;;;7413586;19;19931;-83
2024/02/20 13:36:00;;;;;;;6.35;1.83;;;;;;;;;;7415166;19;20264;-83
2024/02/20 13:38:49;;;;;;;6.05;1.77;;;;;;;;;;7415039;19;19998;-83
2024/02/20 13:41:36;;;;;;;7.63;2.72;;;;;;;;;;7414924;19;20475;-83
2024/02/20 13:44:21;;;;;;;5.80;2.33;;;;;;;;;;7412046;19;19940;-83
2024/02/20 13:47:06;;;;;;;5.97;1.42;;;;;;;;;;7413525;19;19922;-83
2024/02/20 13:49:53;;;;;;;6.70;2.20;;;;;;;;;;7413282;19;20328;-83
2024/02/20 13:52:37;;;;;;;9.18;2.25;;;;;;;;;;7414524;19;20309;-83
2024/02/20 13:55:26;;;;;;;6.05;2.00;;;;;;;;;;7412661;19;19914;-83
2024/02/20 13:58:11;;;;;;;4.40;2.30;;;;;;;;;;7413159;19;20249;-83
2024/02/20 14:00:58;;;;;;;6.30;2.25;;;;;;;;;;7409210;19;20341;-83
2024/02/20 14:03:42;;;;;;;7.65;2.38;;;;;;;;;;7413468;19;19918;-83
2024/02/20 14:06:30;;;;;;;7.97;2.58;;;;;;;;;;7412626;19;19903;-83
2024/02/20 14:09:17;;;;;;;7.47;2.35;;;;;;;;;;7414854;19;19919;-83
2024/02/20 14:12:04;;;;;;;6.53;2.03;;;;;;;;;;7412044;19;19965;-83
2024/02/20 14:14:52;;;;;;;8.38;2.58;;;;;;;;;;7413991;19;19986;-83
2024/02/20 14:17:36;;;;;;;9.02;2.30;;;;;;;;;;7409585;19;20369;-83
2024/02/20 14:20:25;;;;;;;7.00;2.42;;;;;;;;;;7416131;19;19918;-83
2024/02/20 14:23:10;;;;;;;7.05;2.55;;;;;;;;;;7419732;19;19915;-83
2024/02/20 14:25:57;;;;;;;8.10;2.35;;;;;;;;;;7420894;19;20010;-83
2024/02/20 14:28:45;;;;;;;10.55;2.60;;;;;;;;;;7420484;19;19918;-83
2024/02/20 14:31:33;;;;;;;6.20;2.38;;;;;;;;;;7419313;19;19949;-83
2024/02/20 14:34:20;;;;;;;7.53;2.50;;;;;;;;;;7419248;19;19922;-83
2024/02/20 14:37:07;;;;;;;6.78;2.47;;;;;;;;;;7416506;19;19934;-83
2024/02/20 14:39:56;;;;;;;8.00;1.98;;;;;;;;;;7418406;19;19911;-83
2024/02/20 14:42:41;;;;;;;4.50;2.17;;;;;;;;;;7418785;19;19914;-83
2024/02/20 14:45:28;;;;;;;10.35;2.83;;;;;;;;;;7419249;19;19937;-83
2024/02/20 14:48:18;;;;;;;9.60;2.17;;;;;;;;;;7415960;19;19934;-83
2024/02/20 14:51:05;;;;;;;5.00;2.35;;;;;;;;;;7416996;19;19929;-83
2024/02/20 14:53:49;;;;;;;5.28;1.98;;;;;;;;;;7417989;19;19947;-83
2024/02/20 14:56:36;;;;;;;10.35;2.63;;;;;;;;;;7420077;19;20257;-83
2024/02/20 14:59:20;;;;;;;9.57;2.03;;;;;;;;;;7416593;19;19922;-83
2024/02/20 15:02:13;;;;;;;5.22;1.55;;;;;;;;;;7418379;19;19918;-83
2024/02/20 15:04:57;;;;;;;7.60;2.33;;;;;;;;;;7417504;19;19922;-83
2024/02/20 15:07:44;;;;;;;4.90;1.90;;;;;;;;;;7419483;19;19921;-83
2024/02/20 15:10:32;;;;;;;8.50;2.38;;;;;;;;;;7417618;19;19919;-83
2024/02/20 15:13:17;;;;;;;6.30;2.10;;;;;;;;;;7416974;19;19970;-83
2024/02/20 15:16:02;;;;;;;4.95;1.77;;;;;;;;;;7419022;19;19925;-84
2024/02/20 15:18:49;;;;;;;7.43;2.00;;;;;;;;;;7418750;19;19929;-83
2024/02/20 15:21:34;;;;;;;6.03;2.38;;;;;;;;;;7416860;19;19934;-85
2024/02/20 15:24:18;;;;;;;8.52;2.38;;;;;;;;;;7418826;19;20242;-86
2024/02/20 15:27:08;;;;;;;6.97;2.42;;;;;;;;;;7420910;19;19933;-86
2024/02/20 15:29:55;;;;;;;6.65;2.17;;;;;;;;;;7419369;19;20310;-86
2024/02/20 15:32:46;;;;;;;6.88;2.80;;;;;;;;;;7417902;19;19948;-85
2024/02/20 15:35:33;;;;;;;5.75;1.92;;;;;;;;;;7418947;19;19918;-86
2024/02/20 15:38:20;;;;;;;8.73;2.15;;;;;;;;;;7418354;19;19923;-86
2024/02/20 15:41:07;;;;;;;5.75;2.05;;;;;;;;;;7410181;19;19924;-86
2024/02/20 15:43:51;;;;;;;5.80;2.53;;;;;;;;;;7418536;19;19966;-85
2024/02/20 15:49:17;;;;;;;9.95;2.60;;;;;;;;;;7410272;19;19918;-82
2024/02/20 15:52:04;;;;;;;7.75;3.35;;;;;;;;;;7410771;19;19930;-82
2024/02/20 15:54:49;;;;;;;6.78;2.28;;;;;;;;;;7410847;19;19931;-82
2024/02/20 15:57:39;;;;;;;;;;;;;;;;;;7413867;19;19914;-82
2024/02/20 16:00:26;;;;;;;5.70;1.80;;;;;;;;;;7412411;19;19951;-82
2024/02/20 16:03:13;;;;;;;10.02;2.13;;;;;;;;;;7413986;19;20358;-81
2024/02/20 16:05:57;;;;;;;11.30;2.47;;;;;;;;;;7414958;19;19918;-81
2024/02/20 16:08:46;;;;;;;9.27;2.70;;;;;;;;;;7415947;19;19923;-81
2024/02/20 16:11:33;;;;;;;7.32;2.17;;;;;;;;;;7415068;19;19918;-82
2024/02/20 16:14:17;;;;;;;6.13;1.92;;;;;;;;;;7414159;19;19926;-81
2024/02/20 16:17:03;;;;;;;10.80;3.03;;;;;;;;;;7413336;19;19919;-82
2024/02/20 16:19:48;;;;;;;4.78;2.25;;;;;;;;;;7411377;19;19954;-81
2024/02/20 16:22:32;;;;;;;9.52;2.63;;;;;;;;;;7415900;19;19938;-81
2024/02/20 16:25:19;;;;;;;7.93;2.22;;;;;;;;;;7413575;19;19922;-81
2024/02/20 16:28:07;;;;;;;8.57;2.15;;;;;;;;;;7414072;19;19919;-82
2024/02/20 16:30:51;;;;;;;7.45;2.25;;;;;;;;;;7411334;19;19957;-82
2024/02/20 16:33:38;;;;;;;11.02;3.38;;;;;;;;;;7414343;19;19934;-81
2024/02/20 16:36:22;;;;;;;6.47;2.45;;;;;;;;;;7411596;19;19925;-81
2024/02/20 16:39:06;;;;;;;6.60;2.65;;;;;;;;;;7414863;19;19919;-82
2024/02/20 16:41:56;;;;;;;13.10;2.80;;;;;;;;;;7412998;19;20253;-82